This is the latest recevied weather packets stored in our database for station/object WB8SKP-WX. If no packets are shown the sender has not sent any weather packets the latest 10 day(s).
| Time | Temp. | Humidity | Pressure | Rain* | Wind** | Luminosity | Snow |
|---|---|---|---|---|---|---|---|
| 1777642728 | 12.78° C | 76% | 997.5 hPa | 0 mm | - | - | - |
| 1777641528 | 12.78° C | 82% | 997.4 hPa | 0 mm | - | - | - |
| 1777640298 | 11.67° C | 85% | 997.3 hPa | 0 mm | - | - | - |
| 1777639098 | 11.11° C | 89% | 997.1 hPa | 0 mm | - | - | - |
| 1777637897 | 10° C | 94% | 997 hPa | 0 mm | - | - | - |
| 1777636667 | 8.33° C | 98% | 997 hPa | 0 mm | - | - | - |
| 1777635468 | 7.78° C | 99% | 996.7 hPa | 0 mm | - | - | - |
| 1777634267 | 7.22° C | 99% | 996.4 hPa | 0 mm | - | - | - |
| 1777633037 | 6.67° C | 99% | 996.1 hPa | 0 mm | - | - | - |
| 1777631837 | 7.22° C | 99% | 996 hPa | 0 mm | - | - | - |
| 1777630637 | 7.22° C | 99% | 996 hPa | 0 mm | - | - | - |
| 1777629407 | 7.22° C | 99% | 996 hPa | 0 mm | - | - | - |
| 1777628207 | 7.78° C | 99% | 995.9 hPa | 0 mm | - | - | - |
| 1777627007 | 7.78° C | 99% | 995.8 hPa | 0 mm | - | - | - |
| 1777625777 | 7.78° C | 99% | 996 hPa | 0 mm | - | - | - |
| 1777624577 | 7.78° C | 99% | 995.8 hPa | 0 mm | - | - | - |
| 1777623377 | 7.78° C | 99% | 995.9 hPa | 0 mm | - | - | - |
| 1777622147 | 8.33° C | 99% | 995.8 hPa | 0 mm | - | - | - |
| 1777620947 | 8.33° C | 99% | 995.9 hPa | 0 mm | - | - | - |
| 1777619791 | 8.33° C | 99% | 995.9 hPa | 0 mm | - | - | - |
| 1777619747 | 8.33° C | 99% | 995.9 hPa | 0 mm | - | - | - |
| 1777618610 | 8.89° C | 99% | 996.2 hPa | 0 mm | - | - | - |
| 1777618517 | 8.89° C | 99% | 996.2 hPa | 0 mm | - | - | - |
| 1777617357 | 9.44° C | 99% | 996.5 hPa | 0 mm | - | - | - |
| 1777617317 | 9.44° C | 99% | 996.5 hPa | 0 mm | - | - | - |
* Rain latest hour (hover to see other rain measurements)
** Current wind speed in m/s (hover to see current wind gust speed)